createdAt,value
2018-01-28T00:01:13.676Z,6.71
2018-01-28T00:02:13.517Z,6.75
2018-01-28T00:04:06.323Z,6.79
2018-01-28T00:05:06.248Z,6.76
2018-01-28T00:06:59.064Z,6.71
2018-01-28T00:07:58.930Z,6.76
2018-01-28T00:09:51.746Z,6.76
2018-01-28T00:10:51.635Z,6.76
2018-01-28T00:12:44.409Z,6.81
2018-01-28T00:13:44.329Z,6.78
2018-01-28T00:15:37.103Z,6.76
2018-01-28T00:16:37.033Z,6.78
2018-01-28T00:18:29.802Z,6.73
2018-01-28T00:19:29.735Z,6.78
2018-01-28T00:21:22.503Z,6.83
2018-01-28T00:22:22.438Z,6.75
2018-01-28T00:24:15.205Z,6.75
2018-01-28T00:25:15.172Z,6.76
2018-01-28T00:27:07.887Z,6.82
2018-01-28T00:28:07.889Z,6.76
2018-01-28T00:30:00.603Z,6.78
2018-01-28T00:31:00.520Z,6.76
2018-01-28T00:32:53.280Z,6.82
2018-01-28T00:33:53.215Z,6.82
2018-01-28T00:35:45.979Z,6.78
2018-01-28T00:36:45.914Z,6.78
2018-01-28T00:38:38.669Z,6.79
2018-01-28T00:39:38.592Z,6.83
2018-01-28T00:41:31.360Z,6.78
2018-01-28T00:42:31.321Z,6.78
2018-01-28T00:44:24.060Z,6.75
2018-01-28T00:45:23.981Z,6.78
2018-01-28T00:47:16.745Z,6.75
2018-01-28T00:48:16.669Z,6.79
2018-01-28T00:50:09.446Z,6.76
2018-01-28T00:51:09.368Z,6.78
2018-01-28T00:53:02.128Z,6.76
2018-01-28T00:54:02.047Z,6.78
2018-01-28T00:55:54.826Z,6.75
2018-01-28T00:56:54.743Z,6.73
2018-01-28T00:58:47.494Z,6.76
2018-01-28T00:59:47.425Z,6.78
2018-01-28T01:01:40.264Z,6.76
2018-01-28T01:02:40.142Z,6.76
2018-01-28T01:04:32.870Z,6.86
2018-01-28T01:05:32.808Z,6.79
2018-01-28T01:07:25.583Z,6.78
2018-01-28T01:08:25.501Z,6.81
2018-01-28T01:10:18.408Z,6.83
2018-01-28T01:11:18.194Z,6.82
2018-01-28T01:13:10.987Z,6.78
2018-01-28T01:14:10.896Z,6.83
2018-01-28T01:16:03.674Z,6.82
2018-01-28T01:17:03.602Z,6.76
2018-01-28T01:18:56.356Z,6.81
2018-01-28T01:19:56.284Z,6.78
2018-01-28T01:21:49.062Z,6.72
2018-01-28T01:22:48.984Z,6.75
2018-01-28T01:24:41.741Z,6.76
2018-01-28T01:25:41.679Z,6.76
2018-01-28T01:27:34.439Z,6.87
2018-01-28T01:28:34.357Z,6.76
2018-01-28T01:30:27.120Z,6.64
2018-01-28T01:31:27.079Z,6.75
2018-01-28T01:33:19.817Z,6.76
2018-01-28T01:34:19.828Z,6.69
2018-01-28T01:36:12.534Z,6.65
2018-01-28T01:37:12.545Z,6.69
2018-01-28T01:39:05.209Z,6.86
2018-01-28T01:40:05.176Z,6.83
2018-01-28T01:41:57.927Z,6.78
2018-01-28T01:42:57.825Z,6.78
2018-01-28T01:44:50.585Z,6.76
2018-01-28T01:45:50.580Z,6.76
2018-01-28T01:47:43.329Z,6.76
2018-01-28T01:48:43.241Z,6.65
2018-01-28T01:50:36.025Z,6.81
2018-01-28T01:51:35.944Z,6.65
2018-01-28T01:53:29.664Z,6.76
2018-01-28T01:54:29.596Z,6.76
2018-01-28T01:56:22.347Z,6.79
2018-01-28T01:57:22.279Z,6.75
2018-01-28T01:59:15.059Z,6.79
2018-01-28T02:00:14.979Z,6.72
2018-01-28T02:02:07.744Z,6.76
2018-01-28T02:03:07.680Z,6.81
2018-01-28T02:05:00.463Z,6.72
2018-01-28T02:06:00.386Z,6.83
2018-01-28T02:07:53.144Z,6.73
2018-01-28T02:08:53.077Z,6.81
2018-01-28T02:10:45.859Z,6.81
2018-01-28T02:11:45.777Z,6.75
2018-01-28T02:13:38.559Z,6.76
2018-01-28T02:14:38.477Z,6.81
2018-01-28T02:16:31.249Z,6.78
2018-01-28T02:17:31.181Z,6.76
2018-01-28T02:19:23.954Z,6.76
2018-01-28T02:20:23.876Z,6.75
2018-01-28T02:22:16.811Z,6.78
2018-01-28T02:23:16.580Z,6.76
2018-01-28T02:25:10.201Z,6.78
2018-01-28T02:26:10.121Z,6.81
2018-01-28T02:28:02.882Z,6.79
2018-01-28T02:29:02.814Z,6.78
2018-01-28T02:30:55.601Z,6.87
2018-01-28T02:31:55.532Z,6.76
2018-01-28T02:33:48.284Z,6.89
2018-01-28T02:34:48.219Z,6.75
2018-01-28T02:36:41.084Z,6.73
2018-01-28T02:37:40.973Z,6.75
2018-01-28T02:39:33.773Z,6.76
2018-01-28T02:40:33.683Z,6.90
2018-01-28T02:42:26.480Z,6.73
2018-01-28T02:43:26.381Z,6.89
2018-01-28T02:45:19.157Z,6.73
2018-01-28T02:46:19.069Z,6.78
2018-01-28T02:48:11.867Z,6.78
2018-01-28T02:49:11.809Z,6.78
2018-01-28T02:51:04.564Z,6.81
2018-01-28T02:52:04.503Z,6.81
2018-01-28T02:53:57.260Z,6.75
2018-01-28T02:54:57.208Z,6.76
2018-01-28T02:56:49.972Z,6.94
2018-01-28T02:57:49.895Z,6.86
2018-01-28T02:59:42.669Z,6.89
2018-01-28T03:00:42.600Z,6.94
2018-01-28T03:02:35.371Z,6.94
2018-01-28T03:03:35.307Z,6.93
2018-01-28T03:05:28.067Z,6.91
2018-01-28T03:06:27.998Z,6.91
2018-01-28T03:08:20.769Z,6.94
2018-01-28T03:09:20.693Z,6.87
2018-01-28T03:11:13.468Z,6.96
2018-01-28T03:12:13.396Z,6.97
2018-01-28T03:14:06.149Z,7.04
2018-01-28T03:15:06.086Z,6.99
2018-01-28T03:16:58.866Z,7.11
2018-01-28T03:17:58.789Z,7.07
2018-01-28T03:19:51.542Z,7.09
2018-01-28T03:20:51.477Z,7.04
2018-01-28T03:22:44.264Z,7.16
2018-01-28T03:23:44.193Z,7.15
2018-01-28T03:25:37.009Z,7.09
2018-01-28T03:26:36.942Z,7.09
2018-01-28T03:28:29.737Z,7.18
2018-01-28T03:29:29.671Z,7.12
2018-01-28T03:31:22.428Z,7.07
2018-01-28T03:32:22.355Z,7.12
2018-01-28T03:34:15.141Z,6.99
2018-01-28T03:35:15.064Z,6.97
2018-01-28T03:37:07.849Z,7.00
2018-01-28T03:38:07.761Z,7.00
2018-01-28T03:40:00.530Z,6.90
2018-01-28T03:41:00.458Z,6.79
2018-01-28T03:42:53.219Z,6.81
2018-01-28T03:43:53.145Z,6.81
2018-01-28T03:45:45.925Z,6.76
2018-01-28T03:46:45.855Z,6.73
2018-01-28T03:48:38.616Z,6.58
2018-01-28T03:49:38.543Z,6.57
2018-01-28T03:51:31.328Z,6.51
2018-01-28T03:52:31.259Z,6.48
2018-01-28T03:54:24.067Z,6.53
2018-01-28T03:55:23.969Z,6.40
2018-01-28T03:57:16.696Z,6.43
2018-01-28T03:58:16.686Z,6.36
2018-01-28T04:00:09.549Z,6.38
2018-01-28T04:01:09.357Z,6.36
2018-01-28T04:03:02.197Z,6.33
2018-01-28T04:04:02.089Z,6.30
2018-01-28T04:05:55.532Z,6.33
2018-01-28T04:06:54.774Z,6.27
2018-01-28T04:08:47.568Z,6.32
2018-01-28T04:09:47.501Z,6.36
2018-01-28T04:11:40.262Z,6.28
2018-01-28T04:12:40.198Z,6.28
2018-01-28T04:14:33.897Z,6.27
2018-01-28T04:15:33.821Z,6.36
2018-01-28T04:17:26.709Z,6.27
2018-01-28T04:18:26.567Z,6.35
2018-01-28T04:20:19.334Z,6.30
2018-01-28T04:21:19.277Z,6.36
2018-01-28T04:23:12.022Z,6.25
2018-01-28T04:24:11.955Z,6.27
2018-01-28T04:26:04.753Z,6.30
2018-01-28T04:27:04.766Z,6.25
2018-01-28T04:28:57.575Z,6.25
2018-01-28T04:29:57.471Z,6.24
2018-01-28T04:31:50.228Z,6.27
2018-01-28T04:32:50.154Z,6.21
2018-01-28T04:34:42.912Z,6.20
2018-01-28T04:35:42.842Z,6.14
2018-01-28T04:37:35.618Z,6.20
2018-01-28T04:38:35.553Z,6.28
2018-01-28T04:40:28.330Z,6.20
2018-01-28T04:41:28.232Z,6.16
2018-01-28T04:43:21.000Z,6.17
2018-01-28T04:44:20.953Z,6.21
2018-01-28T04:46:13.712Z,6.21
2018-01-28T04:47:13.629Z,6.27
2018-01-28T04:49:06.397Z,6.10
2018-01-28T04:50:06.345Z,6.17
2018-01-28T04:51:59.281Z,6.20
2018-01-28T04:52:59.091Z,6.24
2018-01-28T04:54:51.887Z,6.27
2018-01-28T04:55:51.798Z,6.25
2018-01-28T04:57:44.612Z,6.17
2018-01-28T04:58:44.536Z,6.25
2018-01-28T05:00:37.308Z,6.19
2018-01-28T05:01:37.245Z,6.21
2018-01-28T05:03:30.019Z,6.24
2018-01-28T05:04:29.932Z,6.24
2018-01-28T05:06:22.712Z,6.21
2018-01-28T05:07:22.640Z,6.25
2018-01-28T05:09:15.416Z,6.27
2018-01-28T05:10:15.359Z,6.21
2018-01-28T05:12:08.126Z,6.30
2018-01-28T05:13:08.032Z,6.27
2018-01-28T05:15:00.869Z,6.33
2018-01-28T05:16:00.796Z,6.39
2018-01-28T05:17:53.584Z,6.33
2018-01-28T05:18:53.499Z,6.33
2018-01-28T05:20:46.271Z,6.38
2018-01-28T05:21:46.199Z,6.36
2018-01-28T05:23:39.005Z,6.43
2018-01-28T05:24:38.885Z,6.42
2018-01-28T05:26:31.637Z,6.40
2018-01-28T05:27:31.570Z,6.45
2018-01-28T05:29:24.568Z,6.39
2018-01-28T05:30:24.301Z,6.45
2018-01-28T05:32:17.076Z,6.38
2018-01-28T05:33:16.970Z,6.43
2018-01-28T05:35:09.826Z,6.43
2018-01-28T05:36:09.699Z,6.48
2018-01-28T05:38:02.469Z,6.50
2018-01-28T05:39:02.388Z,6.51
2018-01-28T05:40:55.995Z,6.48
2018-01-28T05:41:55.926Z,6.40
2018-01-28T05:43:48.727Z,6.46
2018-01-28T05:44:48.626Z,6.48
2018-01-28T05:46:41.390Z,6.48
2018-01-28T05:47:41.326Z,6.45
2018-01-28T05:49:34.125Z,6.48
2018-01-28T05:50:34.020Z,6.48
2018-01-28T05:52:26.779Z,6.55
2018-01-28T05:53:27.695Z,6.53
2018-01-28T05:55:19.514Z,6.48
2018-01-28T05:56:19.414Z,6.48
2018-01-28T05:58:12.187Z,6.51
2018-01-28T05:59:12.120Z,6.53
2018-01-28T06:01:04.910Z,6.58
2018-01-28T06:02:04.821Z,6.51
2018-01-28T06:03:57.602Z,6.53
2018-01-28T06:04:57.527Z,6.50
2018-01-28T06:06:50.311Z,6.57
2018-01-28T06:07:50.244Z,6.54
2018-01-28T06:09:43.059Z,6.64
2018-01-28T06:10:42.946Z,6.51
2018-01-28T06:12:35.693Z,6.60
2018-01-28T06:13:35.627Z,6.54
2018-01-28T06:15:28.405Z,6.50
2018-01-28T06:16:28.322Z,6.51
2018-01-28T06:18:21.083Z,6.53
2018-01-28T06:19:21.000Z,6.51
2018-01-28T06:21:13.793Z,6.60
2018-01-28T06:22:13.836Z,6.50
2018-01-28T06:24:06.524Z,6.58
2018-01-28T06:25:06.453Z,6.57
2018-01-28T06:26:59.235Z,6.61
2018-01-28T06:27:59.153Z,6.64
2018-01-28T06:29:51.964Z,6.53
2018-01-28T06:30:51.860Z,6.60
2018-01-28T06:32:44.620Z,6.63
2018-01-28T06:33:44.556Z,6.60
2018-01-28T06:35:37.346Z,6.60
2018-01-28T06:36:37.249Z,6.60
2018-01-28T06:38:30.024Z,6.60
2018-01-28T06:39:29.943Z,6.57
2018-01-28T06:41:22.781Z,6.57
2018-01-28T06:42:22.707Z,6.63
2018-01-28T06:44:15.456Z,6.58
2018-01-28T06:45:15.386Z,6.54
2018-01-28T06:47:08.187Z,6.57
2018-01-28T06:48:08.125Z,6.63
2018-01-28T06:50:00.858Z,6.64
2018-01-28T06:51:00.787Z,6.61
2018-01-28T06:52:53.662Z,6.58
2018-01-28T06:53:53.492Z,6.61
2018-01-28T06:55:46.243Z,6.64
2018-01-28T06:56:46.191Z,6.64
2018-01-28T06:58:38.967Z,6.64
2018-01-28T06:59:38.881Z,6.69
2018-01-28T07:01:31.645Z,6.68
2018-01-28T07:02:31.569Z,6.72
2018-01-28T07:04:24.318Z,6.71
2018-01-28T07:05:24.254Z,6.69
2018-01-28T07:07:17.028Z,6.76
2018-01-28T07:08:16.947Z,6.68
2018-01-28T07:10:09.780Z,6.73
2018-01-28T07:11:09.696Z,6.79
2018-01-28T07:13:02.464Z,6.79
2018-01-28T07:14:02.386Z,6.73
2018-01-28T07:15:55.143Z,6.83
2018-01-28T07:16:55.066Z,6.78
2018-01-28T07:18:47.889Z,6.78
2018-01-28T07:19:47.819Z,6.86
2018-01-28T07:21:40.589Z,6.76
2018-01-28T07:22:40.517Z,6.79
2018-01-28T07:24:33.310Z,6.78
2018-01-28T07:25:33.231Z,6.76
2018-01-28T07:27:26.037Z,6.78
2018-01-28T07:28:25.922Z,6.78
2018-01-28T07:30:18.716Z,6.78
2018-01-28T07:31:18.792Z,6.79
2018-01-28T07:33:11.392Z,6.86
2018-01-28T07:34:11.322Z,6.75
2018-01-28T07:36:04.120Z,6.75
2018-01-28T07:37:04.029Z,6.79
2018-01-28T07:38:56.828Z,6.73
2018-01-28T07:39:56.722Z,6.73
2018-01-28T07:41:49.491Z,6.89
2018-01-28T07:42:49.428Z,6.89
2018-01-28T07:44:42.322Z,6.90
2018-01-28T07:45:42.246Z,6.90
2018-01-28T07:47:34.999Z,6.94
2018-01-28T07:48:34.973Z,6.89
2018-01-28T07:50:27.720Z,6.94
2018-01-28T07:51:27.624Z,6.93
2018-01-28T07:53:20.524Z,6.90
2018-01-28T07:54:20.321Z,6.97
2018-01-28T07:56:13.102Z,6.94
2018-01-28T07:57:13.022Z,6.97
2018-01-28T07:59:05.829Z,6.96
2018-01-28T08:00:05.738Z,6.96
2018-01-28T08:01:58.525Z,7.00
2018-01-28T08:02:58.447Z,7.08
2018-01-28T08:04:51.209Z,7.05
2018-01-28T08:05:51.137Z,6.99
2018-01-28T08:07:43.997Z,7.09
2018-01-28T08:08:43.879Z,6.99
2018-01-28T08:10:36.650Z,6.99
2018-01-28T08:11:36.564Z,7.14
2018-01-28T08:13:29.361Z,7.11
2018-01-28T08:14:29.597Z,7.00
2018-01-28T08:16:22.055Z,7.11
2018-01-28T08:17:21.984Z,7.16
2018-01-28T08:19:14.754Z,7.18
2018-01-28T08:20:14.723Z,7.18
2018-01-28T08:22:07.498Z,7.23
2018-01-28T08:23:07.431Z,7.24
2018-01-28T08:25:00.227Z,7.21
2018-01-28T08:26:00.120Z,7.23
2018-01-28T08:27:52.874Z,7.29
2018-01-28T08:28:52.838Z,7.27
2018-01-28T08:30:45.608Z,7.24
2018-01-28T08:31:45.492Z,7.24
2018-01-28T08:33:38.886Z,7.26
2018-01-28T08:34:38.204Z,7.32
2018-01-28T08:36:30.989Z,7.34
2018-01-28T08:37:31.024Z,7.29
2018-01-28T08:39:23.658Z,7.32
2018-01-28T08:40:23.595Z,7.32
2018-01-28T08:42:16.364Z,7.33
2018-01-28T08:43:16.291Z,7.30
2018-01-28T08:45:09.052Z,7.33
2018-01-28T08:46:08.971Z,7.32
2018-01-28T08:48:01.780Z,7.32
2018-01-28T08:49:01.672Z,7.36
2018-01-28T08:50:54.536Z,7.37
2018-01-28T08:51:54.420Z,7.33
2018-01-28T08:53:47.242Z,7.41
2018-01-28T08:54:47.120Z,7.29
2018-01-28T08:56:39.960Z,7.29
2018-01-28T08:57:39.823Z,7.29
2018-01-28T08:59:32.600Z,7.29
2018-01-28T09:00:32.632Z,7.24
2018-01-28T09:02:25.307Z,7.21
2018-01-28T09:03:25.266Z,7.30
2018-01-28T09:05:17.992Z,7.36
2018-01-28T09:06:17.935Z,7.37
2018-01-28T09:08:10.702Z,7.42
2018-01-28T09:09:10.631Z,7.45
2018-01-28T09:11:04.312Z,7.39
2018-01-28T09:12:04.257Z,7.37
2018-01-28T09:13:57.088Z,7.44
2018-01-28T09:14:57.021Z,7.45
2018-01-28T09:16:49.735Z,7.50
2018-01-28T09:17:49.666Z,7.50
2018-01-28T09:19:42.464Z,7.55
2018-01-28T09:20:42.387Z,7.74
2018-01-28T09:22:35.145Z,7.70
2018-01-28T09:23:35.081Z,7.74
2018-01-28T09:25:27.913Z,7.88
2018-01-28T09:26:27.813Z,8.00
2018-01-28T09:28:20.583Z,8.25
2018-01-28T09:29:20.506Z,8.34
2018-01-28T09:31:13.345Z,8.43
2018-01-28T09:32:13.215Z,8.47
2018-01-28T09:34:05.997Z,8.31
2018-01-28T09:35:05.940Z,8.20
2018-01-28T09:36:58.710Z,8.29
2018-01-28T09:37:58.645Z,8.40
2018-01-28T09:39:51.471Z,8.43
2018-01-28T09:40:51.396Z,8.54
2018-01-28T09:42:44.219Z,8.50
2018-01-28T09:43:44.098Z,8.49
2018-01-28T09:45:36.889Z,8.65
2018-01-28T09:46:36.821Z,8.73
2018-01-28T09:48:29.649Z,9.00
2018-01-28T09:49:29.515Z,8.98
2018-01-28T09:51:22.288Z,8.93
2018-01-28T09:52:22.221Z,8.93
2018-01-28T09:54:14.997Z,8.79
2018-01-28T09:55:14.921Z,8.70
2018-01-28T09:57:07.693Z,8.71
2018-01-28T09:58:07.645Z,8.65
2018-01-28T10:00:00.403Z,8.58
2018-01-28T10:01:00.335Z,8.50
2018-01-28T10:02:53.096Z,8.61
2018-01-28T10:03:53.031Z,8.61
2018-01-28T10:05:45.878Z,8.47
2018-01-28T10:06:45.820Z,8.39
2018-01-28T10:08:38.594Z,8.46
2018-01-28T10:09:38.548Z,8.50
2018-01-28T10:11:31.302Z,8.63
2018-01-28T10:12:31.240Z,8.73
2018-01-28T10:14:24.023Z,8.63
2018-01-28T10:15:23.952Z,8.73
2018-01-28T10:17:16.694Z,8.89
2018-01-28T10:18:16.628Z,8.97
2018-01-28T10:20:09.416Z,8.88
2018-01-28T10:21:09.336Z,8.94
2018-01-28T10:23:02.209Z,8.98
2018-01-28T10:24:02.101Z,9.08
2018-01-28T10:25:54.895Z,9.04
2018-01-28T10:26:54.816Z,9.17
2018-01-28T10:28:47.609Z,9.16
2018-01-28T10:29:47.543Z,9.16
2018-01-28T10:31:40.314Z,9.22
2018-01-28T10:32:40.249Z,9.20
2018-01-28T10:34:33.006Z,9.04
2018-01-28T10:35:32.950Z,9.06
2018-01-28T10:37:25.775Z,9.01
2018-01-28T10:38:25.651Z,9.06
2018-01-28T10:40:18.434Z,9.00
2018-01-28T10:41:18.368Z,9.04
2018-01-28T10:43:11.134Z,8.97
2018-01-28T10:44:11.048Z,8.96
2018-01-28T10:46:03.831Z,9.01
2018-01-28T10:47:03.758Z,9.06
2018-01-28T10:48:56.521Z,8.96
2018-01-28T10:49:56.449Z,8.91
2018-01-28T10:51:49.245Z,9.01
2018-01-28T10:52:49.149Z,9.06
2018-01-28T10:54:41.917Z,9.16
2018-01-28T10:55:41.894Z,9.00
2018-01-28T10:57:34.644Z,9.19
2018-01-28T10:58:34.762Z,9.23
2018-01-28T11:00:27.322Z,9.15
2018-01-28T11:01:27.256Z,9.04
2018-01-28T11:03:20.080Z,9.04
2018-01-28T11:04:19.990Z,8.96
2018-01-28T11:06:12.786Z,8.96
2018-01-28T11:07:12.695Z,8.94
2018-01-28T11:09:05.526Z,8.94
2018-01-28T11:10:05.452Z,8.98
2018-01-28T11:11:58.263Z,9.12
2018-01-28T11:12:58.193Z,8.98
2018-01-28T11:14:51.002Z,9.17
2018-01-28T11:15:50.922Z,9.24
2018-01-28T11:17:43.720Z,9.34
2018-01-28T11:18:43.638Z,9.37
2018-01-28T11:20:36.432Z,9.35
2018-01-28T11:21:36.369Z,9.34
2018-01-28T11:23:29.174Z,9.34
2018-01-28T11:24:29.080Z,9.32
2018-01-28T11:26:21.853Z,9.34
2018-01-28T11:27:21.792Z,9.42
2018-01-28T11:29:14.609Z,9.34
2018-01-28T11:30:14.511Z,9.32
2018-01-28T11:32:07.332Z,9.34
2018-01-28T11:33:07.224Z,9.37
2018-01-28T11:35:00.005Z,9.42
2018-01-28T11:35:59.934Z,9.38
2018-01-28T11:37:52.723Z,9.44
2018-01-28T11:38:52.661Z,9.50
2018-01-28T11:40:45.551Z,9.53
2018-01-28T11:41:45.448Z,9.49
2018-01-28T11:43:38.243Z,9.42
2018-01-28T11:44:38.183Z,9.42
2018-01-28T11:46:31.035Z,9.38
2018-01-28T11:47:30.966Z,9.34
2018-01-28T11:49:23.948Z,9.38
2018-01-28T11:50:23.651Z,9.34
2018-01-28T11:52:16.530Z,9.37
2018-01-28T11:53:16.417Z,9.26
2018-01-28T11:55:09.280Z,9.27
2018-01-28T11:56:09.215Z,9.37
2018-01-28T11:58:01.964Z,9.35
2018-01-28T11:59:01.889Z,9.27
2018-01-28T12:00:54.680Z,9.31
2018-01-28T12:01:54.588Z,9.30
2018-01-28T12:03:47.521Z,9.17
2018-01-28T12:04:47.304Z,9.34
2018-01-28T12:06:40.134Z,9.19
2018-01-28T12:07:40.018Z,9.17
2018-01-28T12:09:32.909Z,9.17
2018-01-28T12:10:32.822Z,9.19
2018-01-28T12:12:25.613Z,9.16
2018-01-28T12:13:25.528Z,9.27
2018-01-28T12:15:18.357Z,9.35
2018-01-28T12:16:18.230Z,9.44
2018-01-28T12:18:11.124Z,9.49
2018-01-28T12:19:10.972Z,9.40
2018-01-28T12:21:03.753Z,9.42
2018-01-28T12:22:03.655Z,9.48
2018-01-28T12:23:56.486Z,9.38
2018-01-28T12:24:56.407Z,9.40
2018-01-28T12:26:49.189Z,9.49
2018-01-28T12:27:49.117Z,9.44
2018-01-28T12:29:41.940Z,9.38
2018-01-28T12:30:41.825Z,9.40
2018-01-28T12:32:34.623Z,9.38
2018-01-28T12:33:34.544Z,9.27
2018-01-28T12:35:27.321Z,9.23
2018-01-28T12:36:27.251Z,9.19
2018-01-28T12:38:20.045Z,9.37
2018-01-28T12:39:19.971Z,9.31
2018-01-28T12:41:12.784Z,9.35
2018-01-28T12:42:12.712Z,9.30
2018-01-28T12:44:05.533Z,9.34
2018-01-28T12:45:05.448Z,9.40
2018-01-28T12:46:58.385Z,9.45
2018-01-28T12:47:58.226Z,9.34
2018-01-28T12:49:51.064Z,9.32
2018-01-28T12:50:50.973Z,9.31
2018-01-28T12:52:43.906Z,9.38
2018-01-28T12:53:43.705Z,9.40
2018-01-28T12:55:36.493Z,9.37
2018-01-28T12:56:36.441Z,9.37
2018-01-28T12:58:29.232Z,9.35
2018-01-28T12:59:29.158Z,9.31
2018-01-28T13:01:21.934Z,9.26
2018-01-28T13:02:21.932Z,9.24
2018-01-28T13:04:14.786Z,9.17
2018-01-28T13:05:14.666Z,9.15
2018-01-28T13:07:07.551Z,9.17
2018-01-28T13:08:07.349Z,9.19
2018-01-28T13:10:00.139Z,9.16
2018-01-28T13:11:00.086Z,9.23
2018-01-28T13:12:52.840Z,9.30
2018-01-28T13:13:52.781Z,9.27
2018-01-28T13:15:45.546Z,9.32
2018-01-28T13:16:45.472Z,9.42
2018-01-28T13:18:38.226Z,9.38
2018-01-28T13:19:38.162Z,9.40
2018-01-28T13:21:31.023Z,9.44
2018-01-28T13:22:30.937Z,9.38
2018-01-28T13:24:23.642Z,9.38
2018-01-28T13:25:23.591Z,9.42
2018-01-28T13:27:16.353Z,9.45
2018-01-28T13:28:16.251Z,9.49
2018-01-28T13:30:09.068Z,9.41
2018-01-28T13:31:08.946Z,9.49
2018-01-28T13:33:01.731Z,9.50
2018-01-28T13:34:01.670Z,9.53
2018-01-28T13:35:54.708Z,9.60
2018-01-28T13:36:54.382Z,9.52
2018-01-28T13:38:47.377Z,9.56
2018-01-28T13:39:47.276Z,9.52
2018-01-28T13:41:40.281Z,9.55
2018-01-28T13:42:40.178Z,9.52
2018-01-28T13:44:33.126Z,9.63
2018-01-28T13:45:33.010Z,9.63
2018-01-28T13:47:25.791Z,9.59
2018-01-28T13:48:25.717Z,9.67
2018-01-28T13:50:18.506Z,9.70
2018-01-28T13:51:18.438Z,9.68
2018-01-28T13:53:11.232Z,9.70
2018-01-28T13:54:11.142Z,9.67
2018-01-28T13:56:03.928Z,9.67
2018-01-28T13:57:03.858Z,9.68
2018-01-28T13:58:56.634Z,9.70
2018-01-28T13:59:56.572Z,9.71
2018-01-28T14:01:49.343Z,9.75
2018-01-28T14:02:49.287Z,9.70
2018-01-28T14:04:42.054Z,9.67
2018-01-28T14:05:41.994Z,9.74
2018-01-28T14:07:34.858Z,9.73
2018-01-28T14:08:34.745Z,9.71
2018-01-28T14:10:27.522Z,9.70
2018-01-28T14:11:27.449Z,9.75
2018-01-28T14:13:20.262Z,9.70
2018-01-28T14:14:20.177Z,9.71
2018-01-28T14:16:13.008Z,9.63
2018-01-28T14:17:12.899Z,9.73
2018-01-28T14:19:05.830Z,9.67
2018-01-28T14:20:05.661Z,9.65
2018-01-28T14:21:58.466Z,9.71
2018-01-28T14:22:58.361Z,9.68
2018-01-28T14:24:51.130Z,9.74
2018-01-28T14:25:51.079Z,9.73
2018-01-28T14:29:15.373Z,9.67
2018-01-28T14:30:15.298Z,9.68
2018-01-28T14:32:08.043Z,9.77
2018-01-28T14:33:07.989Z,9.73
2018-01-28T14:35:00.921Z,9.67
2018-01-28T14:36:00.765Z,9.71
2018-01-28T14:37:54.280Z,9.68
2018-01-28T14:38:53.487Z,9.71
2018-01-28T14:40:46.318Z,9.75
2018-01-28T14:41:46.233Z,9.73
2018-01-28T14:43:39.036Z,9.70
2018-01-28T14:44:38.941Z,9.71
2018-01-28T14:46:31.740Z,9.73
2018-01-28T14:47:31.696Z,9.68
2018-01-28T14:49:24.432Z,9.67
2018-01-28T14:50:24.354Z,9.71
2018-01-28T14:52:17.210Z,9.63
2018-01-28T14:53:17.153Z,9.63
2018-01-28T14:55:09.911Z,9.62
2018-01-28T14:56:09.826Z,9.63
2018-01-28T14:58:02.621Z,9.60
2018-01-28T14:59:02.548Z,9.52
2018-01-28T15:00:55.327Z,9.56
2018-01-28T15:01:55.289Z,9.67
2018-01-28T15:03:48.078Z,9.68
2018-01-28T15:04:47.966Z,9.50
2018-01-28T15:06:40.754Z,9.55
2018-01-28T15:07:40.676Z,9.65
2018-01-28T15:09:33.477Z,9.56
2018-01-28T15:10:33.398Z,9.67
2018-01-28T15:12:26.189Z,9.56
2018-01-28T15:13:26.108Z,9.56
2018-01-28T15:15:18.912Z,9.58
2018-01-28T15:16:18.831Z,9.55
2018-01-28T15:18:11.638Z,9.56
2018-01-28T15:19:11.562Z,9.58
2018-01-28T15:21:04.406Z,9.55
2018-01-28T15:22:04.316Z,9.52
2018-01-28T15:23:57.134Z,9.52
2018-01-28T15:24:57.081Z,9.42
2018-01-28T15:26:49.913Z,9.44
2018-01-28T15:27:49.839Z,9.42
2018-01-28T15:29:42.737Z,9.34
2018-01-28T15:30:42.616Z,9.35
2018-01-28T15:32:35.503Z,9.40
2018-01-28T15:33:35.342Z,9.41
2018-01-28T15:35:28.134Z,9.34
2018-01-28T15:36:28.060Z,9.40
2018-01-28T15:38:20.906Z,9.38
2018-01-28T15:39:20.840Z,9.40
2018-01-28T15:41:13.629Z,9.35
2018-01-28T15:42:13.569Z,9.34
2018-01-28T15:44:06.370Z,9.19
2018-01-28T15:45:06.275Z,9.19
2018-01-28T15:46:59.104Z,9.13
2018-01-28T15:47:59.040Z,9.08
2018-01-28T15:49:51.898Z,9.06
2018-01-28T15:50:51.744Z,9.08
2018-01-28T15:52:44.635Z,9.15
2018-01-28T15:53:44.569Z,9.06
2018-01-28T15:55:37.402Z,9.12
2018-01-28T15:56:37.329Z,9.16
2018-01-28T15:58:30.143Z,9.13
2018-01-28T15:59:30.069Z,9.15
2018-01-28T16:01:22.875Z,9.19
2018-01-28T16:02:22.776Z,9.16
2018-01-28T16:04:15.574Z,9.20
2018-01-28T16:05:15.471Z,9.20
2018-01-28T16:07:08.273Z,9.19
2018-01-28T16:08:08.202Z,9.17
2018-01-28T16:10:01.018Z,9.20
2018-01-28T16:11:00.950Z,9.19
2018-01-28T16:12:53.738Z,9.16
2018-01-28T16:13:53.658Z,9.23
2018-01-28T16:15:46.468Z,9.26
2018-01-28T16:16:46.424Z,9.23
2018-01-28T16:18:39.213Z,9.22
2018-01-28T16:19:39.132Z,9.17
2018-01-28T16:21:31.924Z,9.22
2018-01-28T16:22:31.860Z,9.20
2018-01-28T16:24:24.648Z,9.22
2018-01-28T16:25:24.552Z,9.15
2018-01-28T16:27:17.333Z,9.17
2018-01-28T16:28:17.256Z,9.15
2018-01-28T16:30:10.073Z,9.27
2018-01-28T16:31:10.004Z,9.27
2018-01-28T16:33:02.813Z,9.20
2018-01-28T16:34:02.719Z,9.17
2018-01-28T16:35:55.566Z,9.17
2018-01-28T16:36:55.440Z,9.17
2018-01-28T16:38:48.240Z,9.17
2018-01-28T16:39:48.163Z,9.15
2018-01-28T16:41:40.925Z,9.17
2018-01-28T16:42:40.858Z,9.20
2018-01-28T16:44:33.917Z,9.24
2018-01-28T16:45:33.569Z,9.27
2018-01-28T16:47:26.328Z,9.27
2018-01-28T16:48:26.266Z,9.31
2018-01-28T16:50:19.138Z,9.26
2018-01-28T16:51:18.989Z,9.19
2018-01-28T16:53:11.763Z,9.32
2018-01-28T16:54:11.686Z,9.22
2018-01-28T16:56:04.476Z,9.34
2018-01-28T16:57:04.410Z,9.32
2018-01-28T16:58:57.256Z,9.32
2018-01-28T16:59:57.179Z,9.34
2018-01-28T17:01:49.918Z,9.38
2018-01-28T17:02:49.860Z,9.42
2018-01-28T17:04:42.638Z,9.38
2018-01-28T17:05:42.558Z,9.32
2018-01-28T17:07:36.544Z,9.37
2018-01-28T17:08:36.175Z,9.32
2018-01-28T17:10:29.007Z,9.40
2018-01-28T17:11:28.856Z,9.40
2018-01-28T17:13:21.651Z,9.42
2018-01-28T17:14:21.543Z,9.41
2018-01-28T17:16:14.344Z,9.45
2018-01-28T17:17:14.325Z,9.42
2018-01-28T17:19:07.034Z,9.42
2018-01-28T17:20:06.954Z,9.50
2018-01-28T17:21:59.741Z,9.40
2018-01-28T17:22:59.673Z,9.42
2018-01-28T17:24:52.467Z,9.37
2018-01-28T17:25:52.410Z,9.42
2018-01-28T17:27:45.172Z,9.42
2018-01-28T17:28:45.093Z,9.45
2018-01-28T17:30:37.992Z,9.48
2018-01-28T17:31:37.825Z,9.35
2018-01-28T17:33:30.614Z,9.45
2018-01-28T17:34:30.539Z,9.44
2018-01-28T17:36:23.300Z,9.42
2018-01-28T17:37:23.285Z,9.38
2018-01-28T17:39:15.993Z,9.45
2018-01-28T17:40:15.928Z,9.56
2018-01-28T17:42:08.721Z,9.48
2018-01-28T17:43:08.647Z,9.53
2018-01-28T17:45:01.460Z,9.52
2018-01-28T17:46:01.363Z,9.50
2018-01-28T17:47:54.145Z,9.58
2018-01-28T17:48:54.268Z,9.59
2018-01-28T17:50:46.892Z,9.52
2018-01-28T17:51:46.810Z,9.62
2018-01-28T17:53:39.588Z,9.60
2018-01-28T17:54:39.524Z,9.68
2018-01-28T17:56:32.319Z,9.68
2018-01-28T17:57:32.255Z,9.75
2018-01-28T17:59:25.013Z,9.73
2018-01-28T18:00:24.947Z,9.70
2018-01-28T18:02:17.749Z,9.59
2018-01-28T18:03:17.671Z,9.60
2018-01-28T18:05:10.465Z,9.55
2018-01-28T18:06:10.428Z,9.52
2018-01-28T18:08:03.491Z,9.65
2018-01-28T18:09:03.094Z,9.50
2018-01-28T18:10:55.884Z,9.65
2018-01-28T18:11:55.811Z,9.55
2018-01-28T18:13:48.616Z,9.56
2018-01-28T18:14:48.519Z,9.56
2018-01-28T18:16:41.281Z,9.59
2018-01-28T18:17:41.201Z,9.55
2018-01-28T18:19:34.091Z,9.55
2018-01-28T18:20:33.993Z,9.53
2018-01-28T18:22:26.813Z,9.58
2018-01-28T18:23:26.704Z,9.52
2018-01-28T18:25:19.446Z,9.53
2018-01-28T18:26:19.380Z,9.52
2018-01-28T18:28:12.235Z,9.49
2018-01-28T18:29:12.124Z,9.50
2018-01-28T18:31:04.869Z,9.49
2018-01-28T18:32:04.799Z,9.52
2018-01-28T18:33:57.620Z,9.44
2018-01-28T18:34:57.525Z,9.44
2018-01-28T18:36:50.279Z,9.41
2018-01-28T18:37:50.218Z,9.49
2018-01-28T18:39:43.035Z,9.48
2018-01-28T18:40:42.913Z,9.42
2018-01-28T18:42:35.689Z,9.42
2018-01-28T18:43:35.623Z,9.41
2018-01-28T18:45:28.494Z,9.41
2018-01-28T18:46:28.325Z,9.42
2018-01-28T18:48:21.090Z,9.45
2018-01-28T18:49:21.028Z,9.48
2018-01-28T18:51:13.791Z,9.45
2018-01-28T18:52:13.729Z,9.45
2018-01-28T18:54:06.522Z,9.42
2018-01-28T18:55:06.436Z,9.40
2018-01-28T18:56:59.200Z,9.35
2018-01-28T18:57:59.133Z,9.35
2018-01-28T18:59:51.913Z,9.30
2018-01-28T19:00:51.837Z,9.37
2018-01-28T19:02:44.617Z,9.22
2018-01-28T19:03:44.580Z,9.32
2018-01-28T19:05:37.378Z,9.19
2018-01-28T19:06:37.313Z,9.16
2018-01-28T19:08:30.072Z,9.15
2018-01-28T19:09:30.018Z,9.15
2018-01-28T19:11:23.565Z,9.12